Zephyr Cove-Round Hill Village, NV

3:20 PM PDT on April 25, 2015 (GMT -0700)
NVDOT | | Change Station
CLOSE
Current Station
Personal Weather Station
Location: Kingsbury, NV
Elevation: 6346 ft
Nearby Weather Stations

Elev 6346 ft 39.00 °N, 119.95 °W | Updated 57 minutes ago

Overcast
Overcast
44.0 °F
Feels Like 44.0 °F
N
3.0
Wind Variable Wind from NNE
Gusts 5.0 mph

Today
High -- | Low -- °F
--% Chance of Precip.
Yesterday
High -- | Low -- °F
Precip. -- in
6:09 AM 7:46 PM
Waxing Crescent, 49% visible
Pressure 29.85 in
Visibility 10.0 miles
Clouds Mostly Cloudy 2400 ft
Overcast 3500 ft
Dew Point 30.0 °F
Humidity 57%
Rainfall in
Snow Depth Not available.
UV 3 out of 12
Pollen 4.00 out of 12
Air Quality Not available.
Flu Activity Sporadic
METAR KTVL 252153Z AUTO 17005KT 10SM BKN024 OVC035 06/M01 A2990 RMK AO2 RAE2055 SLP106 P0000 T00561011 $

More Conditions Fewer Conditions

Pressure 29.85 in
Visibility 10.0 miles
Clouds Mostly Cloudy 2400 ft
Overcast 3500 ft
Dew Point 30.0 °F
Humidity 57%
Rainfall in
Snow Depth Not available.
UV 3 out of 12
Pollen 4.00 out of 12
Air Quality Not available.
Flu Activity Sporadic
METAR KTVL 252153Z AUTO 17005KT 10SM BKN024 OVC035 06/M01 A2990 RMK AO2 RAE2055 SLP106 P0000 T00561011 $

More Conditions Fewer Conditions

10-Day Weather Forecast

Almanac

Astronomy

Apr. 25, 2015 Rise Set
Actual Time
Civil Twilight
Nautical Twilight
Astronomical Twilight
Moon
Length of Visible Light
Length of Day
Tomorrow will be .
, % of the Moon is Illuminated

Today's Extremes

State Highs State Lows

Community

WunderPhotos

Upload Photos

1,816,833 photos uploaded!

WunderBlogs® & News

Nearby

Air Quality

  Air Quality AQ Index Pollutant
Not available.

Snow Depth

Station Depth Elevation

Earthquake Activity

City Distance Mag. Time & Date
Minimum magnitude displayed is 2.5.

Coastal Water Temperatures

Place Temperature

Stations

Nearby Weather Stations

Station Location Temp. Windchill Dew Point Humidity Wind Precip. Elev Updated Type